Terminal Aerodrome Forecast
Issued by NWS

Home | Current Version | Previous Version | Text Only | Print | Product List | Glossary On
Versions: 1 2 3 4 5 6 7 8 9 10 11 12 13 14 15 16 17
000
FTUS41 KBOX 280243 AAC
TAFHYA
TAF AMD
KHYA 280243Z 2803/2824 00000KT P6SM OVC008
     FM280500 00000KT 3SM BR OVC008
     FM280700 00000KT 2SM BR OVC003
     FM280900 05005KT 2SM -DZ BR OVC003
     FM281500 04013G24KT 5SM -DZ BR OVC008=

USA.gov is the U.S. government's official web portal to all federal, state and local government web resources and services.